Vremea acum in Iasi - Romania

Vrei sa afli care e starea vremii acum in Iasi - Romania? Dorim sa iti furnizam starea vremii pentru Iasi - Romania. Starea vremii Iasi - Romania pentru astazi.

Vremea acum in Iasi

Temperatura: 17 °C

Se simte ca: 17 °C
Innorat: 0 %
Precipitatii: 0 %
Presiune atmosferica: 1023 hPa
Umiditate: 48%
Vizibilitate: 10 km
Vantul bate din ENE cu 6.1 km/h

Evolutia vremii in Iasi pe ore

Ora: 20:00
Parțial noros
Temperatura: 18.5°C
Sansa de precipitatii: 0%
Ora Descriere Temp Se simte Precipitatii Umiditate Vant
00:00Parțial noros15.4°15.4°0%57%ENE 1.1 KM/H
01:00Parțial noros15.2°15.2°0%58%NE 1.1 KM/H
02:00Parțial noros14.9°14.9°0%60%N 1.1 KM/H
03:00Parțial noros14.5°14.5°0%61%N 1.4 KM/H
04:00Parțial noros14.2°14.2°0%63%N 1.4 KM/H
05:00Parțial noros13.8°13.8°0%65%N 1.8 KM/H
06:00Senin14.9°14.9°0%63%NNE 1.8 KM/H
07:00Parțial noros16°16°0%61%NNE 1.8 KM/H
08:00Soare17.1°17.1°0%59%NNE 1.8 KM/H
09:00Soare18.6°18.6°0%54%NE 3.6 KM/H
10:00Soare20.2°20.2°0%48%NE 5.4 KM/H
11:00Soare21.7°21.7°0%43%ENE 7.2 KM/H
12:00Soare22.2°24.1°0%40%ENE 8.6 KM/H
13:00Soare22.6°24°0%36%ENE 10.4 KM/H
14:00Soare23.1°24°0%33%E 11.9 KM/H
15:00Soare22.2°22.8°0%37%E 10.8 KM/H
16:00Soare21.2°21.2°0%41%E 9.4 KM/H
17:00Soare20.3°20.3°0%45%E 8.3 KM/H
18:00Parțial noros19.7°19.7°0%48%E 6.8 KM/H
19:00Senin19.1°19.1°0%52%E 5.4 KM/H
20:00Parțial noros18.5°18.5°0%56%E 4 KM/H
21:00Senin18°18°0%58%E 3.6 KM/H
22:00Parțial noros17.5°17.5°0%61%ENE 3.2 KM/H
23:00Senin17°17°0%63%ENE 2.9 KM/H